sensor_id;sensor_type;location;lat;lon;timestamp;temperature;humidity
64549;DHT22;49838;51.798;10.954;2024-01-11T00:00:36;-1.30;43.80
64549;DHT22;49838;51.798;10.954;2024-01-11T00:03:04;-1.30;43.70
64549;DHT22;49838;51.798;10.954;2024-01-11T00:05:32;-1.30;43.70
64549;DHT22;49838;51.798;10.954;2024-01-11T00:07:59;-1.30;43.80
64549;DHT22;49838;51.798;10.954;2024-01-11T00:10:27;-1.30;43.80
64549;DHT22;49838;51.798;10.954;2024-01-11T00:12:54;-1.30;43.80
64549;DHT22;49838;51.798;10.954;2024-01-11T00:15:21;-1.30;43.80
64549;DHT22;49838;51.798;10.954;2024-01-11T00:17:49;-1.30;43.80
64549;DHT22;49838;51.798;10.954;2024-01-11T00:20:16;-1.30;43.80
64549;DHT22;49838;51.798;10.954;2024-01-11T00:22:44;-1.30;43.80
64549;DHT22;49838;51.798;10.954;2024-01-11T00:25:12;-1.30;43.80
64549;DHT22;49838;51.798;10.954;2024-01-11T00:27:39;-1.30;43.70
64549;DHT22;49838;51.798;10.954;2024-01-11T00:30:07;-1.30;43.60
64549;DHT22;49838;51.798;10.954;2024-01-11T00:32:35;-1.40;43.60
64549;DHT22;49838;51.798;10.954;2024-01-11T00:35:02;-1.50;43.60
64549;DHT22;49838;51.798;10.954;2024-01-11T00:37:30;-1.50;43.70
64549;DHT22;49838;51.798;10.954;2024-01-11T00:39:59;-1.50;43.80
64549;DHT22;49838;51.798;10.954;2024-01-11T00:42:26;-1.50;43.90
64549;DHT22;49838;51.798;10.954;2024-01-11T00:44:53;-1.50;43.90
64549;DHT22;49838;51.798;10.954;2024-01-11T00:47:21;-1.50;43.80
64549;DHT22;49838;51.798;10.954;2024-01-11T00:49:48;-1.40;43.90
64549;DHT22;49838;51.798;10.954;2024-01-11T00:52:15;-1.40;43.80
64549;DHT22;49838;51.798;10.954;2024-01-11T00:54:42;-1.40;43.80
64549;DHT22;49838;51.798;10.954;2024-01-11T00:57:11;-1.40;43.80
64549;DHT22;49838;51.798;10.954;2024-01-11T00:59:39;-1.40;43.70
64549;DHT22;49838;51.798;10.954;2024-01-11T01:02:06;-1.40;43.80
64549;DHT22;49838;51.798;10.954;2024-01-11T01:04:37;-1.40;43.90
64549;DHT22;49838;51.798;10.954;2024-01-11T01:07:04;-1.40;43.90
64549;DHT22;49838;51.798;10.954;2024-01-11T01:09:32;-1.40;44.00
64549;DHT22;49838;51.798;10.954;2024-01-11T01:11:59;-1.40;44.00
64549;DHT22;49838;51.798;10.954;2024-01-11T01:14:28;-1.30;44.10
64549;DHT22;49838;51.798;10.954;2024-01-11T01:16:55;-1.30;44.10
64549;DHT22;49838;51.798;10.954;2024-01-11T01:19:23;-1.30;44.00
64549;DHT22;49838;51.798;10.954;2024-01-11T01:21:50;-1.30;43.90
64549;DHT22;49838;51.798;10.954;2024-01-11T01:24:17;-1.30;43.90
64549;DHT22;49838;51.798;10.954;2024-01-11T01:26:44;-1.40;43.80
64549;DHT22;49838;51.798;10.954;2024-01-11T01:29:12;-1.40;43.80
64549;DHT22;49838;51.798;10.954;2024-01-11T01:31:40;-1.40;43.90
64549;DHT22;49838;51.798;10.954;2024-01-11T01:34:07;-1.40;43.90
64549;DHT22;49838;51.798;10.954;2024-01-11T01:36:35;-1.40;43.90
64549;DHT22;49838;51.798;10.954;2024-01-11T01:39:02;-1.40;43.90
64549;DHT22;49838;51.798;10.954;2024-01-11T01:41:30;-1.40;43.90
64549;DHT22;49838;51.798;10.954;2024-01-11T01:43:57;-1.40;43.80
64549;DHT22;49838;51.798;10.954;2024-01-11T01:46:24;-1.30;43.90
64549;DHT22;49838;51.798;10.954;2024-01-11T01:48:54;-1.30;43.90
64549;DHT22;49838;51.798;10.954;2024-01-11T01:51:24;-1.30;43.90
64549;DHT22;49838;51.798;10.954;2024-01-11T01:53:55;-1.30;43.90
64549;DHT22;49838;51.798;10.954;2024-01-11T01:56:24;-1.30;43.90
64549;DHT22;49838;51.798;10.954;2024-01-11T01:58:52;-1.30;43.90
64549;DHT22;49838;51.798;10.954;2024-01-11T02:01:20;-1.30;43.90
64549;DHT22;49838;51.798;10.954;2024-01-11T02:03:48;-1.20;44.00
64549;DHT22;49838;51.798;10.954;2024-01-11T02:06:18;-1.20;44.00
64549;DHT22;49838;51.798;10.954;2024-01-11T02:08:49;-1.20;44.00
64549;DHT22;49838;51.798;10.954;2024-01-11T02:11:19;-1.20;44.10
64549;DHT22;49838;51.798;10.954;2024-01-11T02:13:47;-1.20;44.10
64549;DHT22;49838;51.798;10.954;2024-01-11T02:16:14;-1.20;44.00
64549;DHT22;49838;51.798;10.954;2024-01-11T02:18:42;-1.20;44.10
64549;DHT22;49838;51.798;10.954;2024-01-11T02:21:09;-1.20;44.00
64549;DHT22;49838;51.798;10.954;2024-01-11T02:23:42;-1.20;43.90
64549;DHT22;49838;51.798;10.954;2024-01-11T02:26:14;-1.30;43.80
64549;DHT22;49838;51.798;10.954;2024-01-11T02:28:44;-1.30;43.90
64549;DHT22;49838;51.798;10.954;2024-01-11T02:31:12;-1.40;43.90
64549;DHT22;49838;51.798;10.954;2024-01-11T02:33:40;-1.40;44.00
64549;DHT22;49838;51.798;10.954;2024-01-11T02:36:08;-1.40;44.10
64549;DHT22;49838;51.798;10.954;2024-01-11T02:38:36;-1.40;44.10
64549;DHT22;49838;51.798;10.954;2024-01-11T02:41:05;-1.40;44.10
64549;DHT22;49838;51.798;10.954;2024-01-11T02:43:34;-1.50;44.10
64549;DHT22;49838;51.798;10.954;2024-01-11T02:46:02;-1.50;44.10
64549;DHT22;49838;51.798;10.954;2024-01-11T02:48:30;-1.50;44.20
64549;DHT22;49838;51.798;10.954;2024-01-11T02:50:58;-1.50;44.20
64549;DHT22;49838;51.798;10.954;2024-01-11T02:53:26;-1.50;44.20
64549;DHT22;49838;51.798;10.954;2024-01-11T02:55:53;-1.50;44.20
64549;DHT22;49838;51.798;10.954;2024-01-11T02:58:20;-1.50;44.10
64549;DHT22;49838;51.798;10.954;2024-01-11T03:00:49;-1.40;44.30
64549;DHT22;49838;51.798;10.954;2024-01-11T03:03:16;-1.40;44.30
64549;DHT22;49838;51.798;10.954;2024-01-11T03:05:43;-1.40;44.30
64549;DHT22;49838;51.798;10.954;2024-01-11T03:08:11;-1.40;44.20
64549;DHT22;49838;51.798;10.954;2024-01-11T03:10:38;-1.40;44.20
64549;DHT22;49838;51.798;10.954;2024-01-11T03:13:06;-1.30;44.20
64549;DHT22;49838;51.798;10.954;2024-01-11T03:15:34;-1.30;44.20
64549;DHT22;49838;51.798;10.954;2024-01-11T03:18:03;-1.30;44.20
64549;DHT22;49838;51.798;10.954;2024-01-11T03:20:30;-1.30;44.20
64549;DHT22;49838;51.798;10.954;2024-01-11T03:22:57;-1.30;44.10
64549;DHT22;49838;51.798;10.954;2024-01-11T03:25:25;-1.20;44.30
64549;DHT22;49838;51.798;10.954;2024-01-11T03:27:52;-1.20;44.20
64549;DHT22;49838;51.798;10.954;2024-01-11T03:30:19;-1.20;44.20
64549;DHT22;49838;51.798;10.954;2024-01-11T03:32:46;-1.20;44.20
64549;DHT22;49838;51.798;10.954;2024-01-11T03:35:15;-1.20;44.20
64549;DHT22;49838;51.798;10.954;2024-01-11T03:37:42;-1.20;44.10
64549;DHT22;49838;51.798;10.954;2024-01-11T03:40:10;-1.20;44.10
64549;DHT22;49838;51.798;10.954;2024-01-11T03:42:38;-1.20;44.20
64549;DHT22;49838;51.798;10.954;2024-01-11T03:45:05;-1.30;44.10
64549;DHT22;49838;51.798;10.954;2024-01-11T03:47:33;-1.30;44.20
64549;DHT22;49838;51.798;10.954;2024-01-11T03:50:01;-1.30;44.10
64549;DHT22;49838;51.798;10.954;2024-01-11T03:52:29;-1.20;44.20
64549;DHT22;49838;51.798;10.954;2024-01-11T03:54:57;-1.20;44.20
64549;DHT22;49838;51.798;10.954;2024-01-11T03:57:24;-1.20;44.20
64549;DHT22;49838;51.798;10.954;2024-01-11T03:59:51;-1.20;44.10
64549;DHT22;49838;51.798;10.954;2024-01-11T04:02:19;-1.20;44.10
64549;DHT22;49838;51.798;10.954;2024-01-11T04:04:46;-1.20;44.10
64549;DHT22;49838;51.798;10.954;2024-01-11T04:07:13;-1.20;44.20
64549;DHT22;49838;51.798;10.954;2024-01-11T04:09:42;-1.20;44.20
64549;DHT22;49838;51.798;10.954;2024-01-11T04:12:10;-1.20;44.20
64549;DHT22;49838;51.798;10.954;2024-01-11T04:14:37;-1.20;44.20
64549;DHT22;49838;51.798;10.954;2024-01-11T04:17:06;-1.30;44.10
64549;DHT22;49838;51.798;10.954;2024-01-11T04:19:33;-1.30;44.10
64549;DHT22;49838;51.798;10.954;2024-01-11T04:22:00;-1.30;44.10
64549;DHT22;49838;51.798;10.954;2024-01-11T04:24:28;-1.40;44.00
64549;DHT22;49838;51.798;10.954;2024-01-11T04:26:57;-1.40;44.10
64549;DHT22;49838;51.798;10.954;2024-01-11T04:29:24;-1.40;44.20
64549;DHT22;49838;51.798;10.954;2024-01-11T04:31:51;-1.40;44.30
64549;DHT22;49838;51.798;10.954;2024-01-11T04:34:18;-1.40;44.30
64549;DHT22;49838;51.798;10.954;2024-01-11T04:36:46;-1.40;44.40
64549;DHT22;49838;51.798;10.954;2024-01-11T04:39:13;-1.40;44.40
64549;DHT22;49838;51.798;10.954;2024-01-11T04:41:41;-1.40;44.50
64549;DHT22;49838;51.798;10.954;2024-01-11T04:44:09;-1.30;44.60
64549;DHT22;49838;51.798;10.954;2024-01-11T04:46:37;-1.30;44.50
64549;DHT22;49838;51.798;10.954;2024-01-11T04:49:04;-1.20;44.60
64549;DHT22;49838;51.798;10.954;2024-01-11T04:51:31;-1.20;44.60
64549;DHT22;49838;51.798;10.954;2024-01-11T04:53:59;-1.20;44.50
64549;DHT22;49838;51.798;10.954;2024-01-11T04:56:26;-1.10;44.60
64549;DHT22;49838;51.798;10.954;2024-01-11T04:58:55;-1.10;44.50
64549;DHT22;49838;51.798;10.954;2024-01-11T05:01:24;-1.10;44.40
64549;DHT22;49838;51.798;10.954;2024-01-11T05:03:51;-1.10;44.40
64549;DHT22;49838;51.798;10.954;2024-01-11T05:06:19;-1.00;44.40
64549;DHT22;49838;51.798;10.954;2024-01-11T05:08:48;-1.00;44.40
64549;DHT22;49838;51.798;10.954;2024-01-11T05:11:17;-1.00;44.50
64549;DHT22;49838;51.798;10.954;2024-01-11T05:13:45;-1.00;44.60
64549;DHT22;49838;51.798;10.954;2024-01-11T05:16:19;-1.00;44.50
64549;DHT22;49838;51.798;10.954;2024-01-11T05:18:49;-1.00;44.60
64549;DHT22;49838;51.798;10.954;2024-01-11T05:21:17;-1.00;44.70
64549;DHT22;49838;51.798;10.954;2024-01-11T05:23:44;-1.00;44.70
64549;DHT22;49838;51.798;10.954;2024-01-11T05:26:12;-1.00;44.60
64549;DHT22;49838;51.798;10.954;2024-01-11T05:28:40;-1.10;44.50
64549;DHT22;49838;51.798;10.954;2024-01-11T05:31:09;-1.10;44.50
64549;DHT22;49838;51.798;10.954;2024-01-11T05:33:37;-1.10;44.50
64549;DHT22;49838;51.798;10.954;2024-01-11T05:36:06;-1.10;44.50
64549;DHT22;49838;51.798;10.954;2024-01-11T05:38:34;-1.00;44.60
64549;DHT22;49838;51.798;10.954;2024-01-11T05:41:02;-1.00;44.60
64549;DHT22;49838;51.798;10.954;2024-01-11T05:43:29;-1.00;44.60
64549;DHT22;49838;51.798;10.954;2024-01-11T05:45:57;-1.00;44.60
64549;DHT22;49838;51.798;10.954;2024-01-11T05:48:24;-0.90;44.70
64549;DHT22;49838;51.798;10.954;2024-01-11T05:50:51;-0.90;44.60
64549;DHT22;49838;51.798;10.954;2024-01-11T05:53:20;-0.80;44.70
64549;DHT22;49838;51.798;10.954;2024-01-11T05:55:48;-0.80;44.70
64549;DHT22;49838;51.798;10.954;2024-01-11T05:58:15;-0.70;44.70
64549;DHT22;49838;51.798;10.954;2024-01-11T06:00:43;-0.70;44.70
64549;DHT22;49838;51.798;10.954;2024-01-11T06:03:11;-0.70;44.70
64549;DHT22;49838;51.798;10.954;2024-01-11T06:05:38;-0.70;44.70
64549;DHT22;49838;51.798;10.954;2024-01-11T06:08:06;-0.70;44.70
64549;DHT22;49838;51.798;10.954;2024-01-11T06:10:35;-0.80;44.70
64549;DHT22;49838;51.798;10.954;2024-01-11T06:13:02;-0.80;44.90
64549;DHT22;49838;51.798;10.954;2024-01-11T06:15:29;-0.80;45.00
64549;DHT22;49838;51.798;10.954;2024-01-11T06:17:57;-0.70;45.10
64549;DHT22;49838;51.798;10.954;2024-01-11T06:20:24;-0.70;45.00
64549;DHT22;49838;51.798;10.954;2024-01-11T06:22:51;-0.70;45.00
64549;DHT22;49838;51.798;10.954;2024-01-11T06:25:18;-0.60;45.00
64549;DHT22;49838;51.798;10.954;2024-01-11T06:27:47;-0.60;45.00
64549;DHT22;49838;51.798;10.954;2024-01-11T06:30:14;-0.50;45.10
64549;DHT22;49838;51.798;10.954;2024-01-11T06:32:42;-0.50;45.10
64549;DHT22;49838;51.798;10.954;2024-01-11T06:35:09;-0.40;45.10
64549;DHT22;49838;51.798;10.954;2024-01-11T06:37:36;-0.40;45.10
64549;DHT22;49838;51.798;10.954;2024-01-11T06:40:04;-0.30;45.20
64549;DHT22;49838;51.798;10.954;2024-01-11T06:42:34;-0.30;45.10
64549;DHT22;49838;51.798;10.954;2024-01-11T06:45:02;-0.30;45.10
64549;DHT22;49838;51.798;10.954;2024-01-11T06:47:30;-0.20;45.20
64549;DHT22;49838;51.798;10.954;2024-01-11T06:49:57;-0.20;45.70
64549;DHT22;49838;51.798;10.954;2024-01-11T06:52:25;-0.20;45.10
64549;DHT22;49838;51.798;10.954;2024-01-11T06:54:52;-0.20;45.10
64549;DHT22;49838;51.798;10.954;2024-01-11T06:57:19;-0.10;45.20
64549;DHT22;49838;51.798;10.954;2024-01-11T06:59:47;-0.10;45.20
64549;DHT22;49838;51.798;10.954;2024-01-11T07:02:16;-0.10;45.20
64549;DHT22;49838;51.798;10.954;2024-01-11T07:04:43;0.00;45.20
64549;DHT22;49838;51.798;10.954;2024-01-11T07:07:11;-0.10;45.20
64549;DHT22;49838;51.798;10.954;2024-01-11T07:09:39;-0.10;45.20
64549;DHT22;49838;51.798;10.954;2024-01-11T07:12:06;-0.10;45.20
64549;DHT22;49838;51.798;10.954;2024-01-11T07:14:34;0.00;45.30
64549;DHT22;49838;51.798;10.954;2024-01-11T07:17:01;0.00;45.30
64549;DHT22;49838;51.798;10.954;2024-01-11T07:19:31;0.00;45.30
64549;DHT22;49838;51.798;10.954;2024-01-11T07:21:58;0.00;45.30
64549;DHT22;49838;51.798;10.954;2024-01-11T07:24:25;0.10;45.30
64549;DHT22;49838;51.798;10.954;2024-01-11T07:26:52;0.10;45.20
64549;DHT22;49838;51.798;10.954;2024-01-11T07:29:20;0.00;45.20
64549;DHT22;49838;51.798;10.954;2024-01-11T07:31:47;0.10;45.30
64549;DHT22;49838;51.798;10.954;2024-01-11T07:34:14;0.10;45.40
64549;DHT22;49838;51.798;10.954;2024-01-11T07:36:44;0.10;45.40
64549;DHT22;49838;51.798;10.954;2024-01-11T07:39:12;0.10;45.50
64549;DHT22;49838;51.798;10.954;2024-01-11T07:41:39;0.20;45.60
64549;DHT22;49838;51.798;10.954;2024-01-11T07:44:07;0.20;45.70
64549;DHT22;49838;51.798;10.954;2024-01-11T07:46:35;0.30;45.80
64549;DHT22;49838;51.798;10.954;2024-01-11T07:49:02;0.40;45.80
64549;DHT22;49838;51.798;10.954;2024-01-11T07:51:30;0.40;45.70
64549;DHT22;49838;51.798;10.954;2024-01-11T07:53:59;0.50;45.80
64549;DHT22;49838;51.798;10.954;2024-01-11T07:56:26;0.50;45.70
64549;DHT22;49838;51.798;10.954;2024-01-11T07:58:53;0.50;45.70
64549;DHT22;49838;51.798;10.954;2024-01-11T08:01:21;0.60;45.80
64549;DHT22;49838;51.798;10.954;2024-01-11T08:03:48;0.60;45.70
64549;DHT22;49838;51.798;10.954;2024-01-11T08:06:17;0.50;45.60
64549;DHT22;49838;51.798;10.954;2024-01-11T08:08:45;0.50;45.60
64549;DHT22;49838;51.798;10.954;2024-01-11T08:11:18;0.50;45.60
64549;DHT22;49838;51.798;10.954;2024-01-11T08:13:46;0.50;45.70
64549;DHT22;49838;51.798;10.954;2024-01-11T08:16:16;0.50;45.70
64549;DHT22;49838;51.798;10.954;2024-01-11T08:18:43;0.50;45.70
64549;DHT22;49838;51.798;10.954;2024-01-11T08:21:11;0.50;45.70
64549;DHT22;49838;51.798;10.954;2024-01-11T08:23:39;0.50;45.70
64549;DHT22;49838;51.798;10.954;2024-01-11T08:26:11;0.50;45.80
64549;DHT22;49838;51.798;10.954;2024-01-11T08:28:40;0.50;45.70
64549;DHT22;49838;51.798;10.954;2024-01-11T08:31:07;0.60;45.80
64549;DHT22;49838;51.798;10.954;2024-01-11T08:33:35;0.60;45.90
64549;DHT22;49838;51.798;10.954;2024-01-11T08:36:03;0.70;45.90
64549;DHT22;49838;51.798;10.954;2024-01-11T08:38:31;0.80;45.90
64549;DHT22;49838;51.798;10.954;2024-01-11T08:40:58;1.00;45.90
64549;DHT22;49838;51.798;10.954;2024-01-11T08:43:25;1.20;46.00
64549;DHT22;49838;51.798;10.954;2024-01-11T08:45:54;1.30;46.00
64549;DHT22;49838;51.798;10.954;2024-01-11T08:48:22;1.40;45.90
64549;DHT22;49838;51.798;10.954;2024-01-11T08:50:49;1.50;45.90
64549;DHT22;49838;51.798;10.954;2024-01-11T08:53:16;1.60;45.90
64549;DHT22;49838;51.798;10.954;2024-01-11T08:55:44;1.80;46.00
64549;DHT22;49838;51.798;10.954;2024-01-11T08:58:11;1.90;46.00
64549;DHT22;49838;51.798;10.954;2024-01-11T09:00:39;2.00;46.10
64549;DHT22;49838;51.798;10.954;2024-01-11T09:03:08;2.10;46.10
64549;DHT22;49838;51.798;10.954;2024-01-11T09:05:36;2.20;46.20
64549;DHT22;49838;51.798;10.954;2024-01-11T09:08:03;2.20;46.30
64549;DHT22;49838;51.798;10.954;2024-01-11T09:10:33;2.30;46.40
64549;DHT22;49838;51.798;10.954;2024-01-11T09:13:00;2.40;46.50
64549;DHT22;49838;51.798;10.954;2024-01-11T09:15:28;2.50;46.60
64549;DHT22;49838;51.798;10.954;2024-01-11T09:17:55;2.60;46.70
64549;DHT22;49838;51.798;10.954;2024-01-11T09:20:23;2.70;46.70
64549;DHT22;49838;51.798;10.954;2024-01-11T09:22:51;2.70;46.90
64549;DHT22;49838;51.798;10.954;2024-01-11T09:25:18;2.80;46.90
64549;DHT22;49838;51.798;10.954;2024-01-11T09:27:45;3.00;47.10
64549;DHT22;49838;51.798;10.954;2024-01-11T09:30:13;3.20;47.10
64549;DHT22;49838;51.798;10.954;2024-01-11T09:32:39;3.50;47.10
64549;DHT22;49838;51.798;10.954;2024-01-11T09:35:07;4.00;47.70
64549;DHT22;49838;51.798;10.954;2024-01-11T09:37:36;4.70;49.10
64549;DHT22;49838;51.798;10.954;2024-01-11T09:40:03;5.60;51.40
64549;DHT22;49838;51.798;10.954;2024-01-11T09:42:36;6.60;52.60
64549;DHT22;49838;51.798;10.954;2024-01-11T09:45:04;7.70;53.30
64549;DHT22;49838;51.798;10.954;2024-01-11T09:47:35;8.70;53.90
64549;DHT22;49838;51.798;10.954;2024-01-11T09:50:03;9.70;53.90
64549;DHT22;49838;51.798;10.954;2024-01-11T09:52:31;10.70;52.70
64549;DHT22;49838;51.798;10.954;2024-01-11T09:55:00;11.50;51.90
64549;DHT22;49838;51.798;10.954;2024-01-11T09:57:29;12.40;51.30
64549;DHT22;49838;51.798;10.954;2024-01-11T09:59:59;13.10;50.50
64549;DHT22;49838;51.798;10.954;2024-01-11T10:02:33;13.80;49.90
64549;DHT22;49838;51.798;10.954;2024-01-11T10:05:00;14.40;49.50
64549;DHT22;49838;51.798;10.954;2024-01-11T10:07:27;15.10;49.40
64549;DHT22;49838;51.798;10.954;2024-01-11T10:09:57;15.70;48.80
64549;DHT22;49838;51.798;10.954;2024-01-11T10:12:26;16.20;48.20
64549;DHT22;49838;51.798;10.954;2024-01-11T10:14:54;16.60;47.70
64549;DHT22;49838;51.798;10.954;2024-01-11T10:17:21;17.10;47.50
64549;DHT22;49838;51.798;10.954;2024-01-11T10:19:52;17.60;47.10
64549;DHT22;49838;51.798;10.954;2024-01-11T10:22:20;18.10;47.00
64549;DHT22;49838;51.798;10.954;2024-01-11T10:24:47;18.50;46.50
64549;DHT22;49838;51.798;10.954;2024-01-11T10:27:15;18.90;46.10
64549;DHT22;49838;51.798;10.954;2024-01-11T10:29:44;19.20;45.70
64549;DHT22;49838;51.798;10.954;2024-01-11T10:32:12;19.60;45.60
64549;DHT22;49838;51.798;10.954;2024-01-11T10:34:39;19.90;44.80
64549;DHT22;49838;51.798;10.954;2024-01-11T10:37:07;20.10;44.60
64549;DHT22;49838;51.798;10.954;2024-01-11T10:39:36;20.50;44.80
64549;DHT22;49838;51.798;10.954;2024-01-11T10:42:06;20.80;44.30
64549;DHT22;49838;51.798;10.954;2024-01-11T10:44:35;21.10;44.20
64549;DHT22;49838;51.798;10.954;2024-01-11T10:47:08;21.40;43.60
64549;DHT22;49838;51.798;10.954;2024-01-11T10:49:37;21.50;42.60
64549;DHT22;49838;51.798;10.954;2024-01-11T10:52:08;21.40;41.40
64549;DHT22;49838;51.798;10.954;2024-01-11T10:54:39;21.20;40.30
64549;DHT22;49838;51.798;10.954;2024-01-11T10:57:08;20.80;40.00
64549;DHT22;49838;51.798;10.954;2024-01-11T10:59:38;20.60;40.10
64549;DHT22;49838;51.798;10.954;2024-01-11T11:02:08;20.50;39.10
64549;DHT22;49838;51.798;10.954;2024-01-11T11:04:38;20.40;38.80
64549;DHT22;49838;51.798;10.954;2024-01-11T11:07:07;20.30;40.00
64549;DHT22;49838;51.798;10.954;2024-01-11T11:09:35;20.20;39.50
64549;DHT22;49838;51.798;10.954;2024-01-11T11:12:09;20.00;38.80
64549;DHT22;49838;51.798;10.954;2024-01-11T11:14:38;19.70;38.40
64549;DHT22;49838;51.798;10.954;2024-01-11T11:17:05;19.50;38.60
64549;DHT22;49838;51.798;10.954;2024-01-11T11:19:34;19.50;38.40
64549;DHT22;49838;51.798;10.954;2024-01-11T11:22:03;19.50;38.10
64549;DHT22;49838;51.798;10.954;2024-01-11T11:24:33;19.30;38.00
64549;DHT22;49838;51.798;10.954;2024-01-11T11:27:00;19.30;38.90
64549;DHT22;49838;51.798;10.954;2024-01-11T11:29:29;19.40;39.20
64549;DHT22;49838;51.798;10.954;2024-01-11T11:31:56;19.40;38.80
64549;DHT22;49838;51.798;10.954;2024-01-11T11:37:32;18.90;37.80
64549;DHT22;49838;51.798;10.954;2024-01-11T11:40:00;18.20;36.20
64549;DHT22;49838;51.798;10.954;2024-01-11T11:42:27;17.60;36.40
64549;DHT22;49838;51.798;10.954;2024-01-11T11:44:57;17.10;36.50
64549;DHT22;49838;51.798;10.954;2024-01-11T11:47:25;16.60;36.50
64549;DHT22;49838;51.798;10.954;2024-01-11T11:50:04;16.00;36.90
64549;DHT22;49838;51.798;10.954;2024-01-11T11:52:35;15.40;36.50
64549;DHT22;49838;51.798;10.954;2024-01-11T11:55:03;14.70;37.10
64549;DHT22;49838;51.798;10.954;2024-01-11T11:57:31;14.20;37.40
64549;DHT22;49838;51.798;10.954;2024-01-11T12:00:00;13.50;37.60
64549;DHT22;49838;51.798;10.954;2024-01-11T12:02:31;12.90;37.90
64549;DHT22;49838;51.798;10.954;2024-01-11T12:05:01;12.40;38.30
64549;DHT22;49838;51.798;10.954;2024-01-11T12:07:30;12.00;38.80
64549;DHT22;49838;51.798;10.954;2024-01-11T12:09:58;11.70;39.50
64549;DHT22;49838;51.798;10.954;2024-01-11T12:12:26;11.50;40.20
64549;DHT22;49838;51.798;10.954;2024-01-11T12:14:57;11.30;40.50
64549;DHT22;49838;51.798;10.954;2024-01-11T12:17:25;11.00;40.80
64549;DHT22;49838;51.798;10.954;2024-01-11T12:19:52;10.70;40.80
64549;DHT22;49838;51.798;10.954;2024-01-11T12:22:19;10.40;41.10
64549;DHT22;49838;51.798;10.954;2024-01-11T12:24:47;10.10;41.50
64549;DHT22;49838;51.798;10.954;2024-01-11T12:27:18;9.80;42.60
64549;DHT22;49838;51.798;10.954;2024-01-11T12:29:49;9.60;42.90
64549;DHT22;49838;51.798;10.954;2024-01-11T12:32:16;9.40;43.10
64549;DHT22;49838;51.798;10.954;2024-01-11T12:34:44;9.20;43.30
64549;DHT22;49838;51.798;10.954;2024-01-11T12:37:12;8.90;43.40
64549;DHT22;49838;51.798;10.954;2024-01-11T12:39:39;8.80;43.80
64549;DHT22;49838;51.798;10.954;2024-01-11T12:42:06;8.60;44.10
64549;DHT22;49838;51.798;10.954;2024-01-11T12:44:36;8.40;44.20
64549;DHT22;49838;51.798;10.954;2024-01-11T12:47:07;8.30;44.20
64549;DHT22;49838;51.798;10.954;2024-01-11T12:49:34;8.10;44.20
64549;DHT22;49838;51.798;10.954;2024-01-11T12:52:04;7.90;44.10
64549;DHT22;49838;51.798;10.954;2024-01-11T12:54:32;7.80;44.40
64549;DHT22;49838;51.798;10.954;2024-01-11T12:56:59;7.70;44.60
64549;DHT22;49838;51.798;10.954;2024-01-11T12:59:28;7.50;44.80
64549;DHT22;49838;51.798;10.954;2024-01-11T13:01:57;7.40;45.10
64549;DHT22;49838;51.798;10.954;2024-01-11T13:04:25;7.40;45.10
64549;DHT22;49838;51.798;10.954;2024-01-11T13:06:53;7.20;45.10
64549;DHT22;49838;51.798;10.954;2024-01-11T13:09:21;7.00;45.10
64549;DHT22;49838;51.798;10.954;2024-01-11T13:11:49;6.90;45.30
64549;DHT22;49838;51.798;10.954;2024-01-11T13:14:16;6.80;45.60
64549;DHT22;49838;51.798;10.954;2024-01-11T13:16:45;6.70;45.70
64549;DHT22;49838;51.798;10.954;2024-01-11T13:19:16;6.50;45.70
64549;DHT22;49838;51.798;10.954;2024-01-11T13:21:43;6.40;45.90
64549;DHT22;49838;51.798;10.954;2024-01-11T13:24:10;6.20;46.10
64549;DHT22;49838;51.798;10.954;2024-01-11T13:26:38;6.10;46.10
64549;DHT22;49838;51.798;10.954;2024-01-11T13:29:06;6.00;46.00
64549;DHT22;49838;51.798;10.954;2024-01-11T13:31:33;5.80;46.10
64549;DHT22;49838;51.798;10.954;2024-01-11T13:34:01;5.70;46.30
64549;DHT22;49838;51.798;10.954;2024-01-11T13:36:30;5.60;46.50
64549;DHT22;49838;51.798;10.954;2024-01-11T13:38:58;5.50;46.60
64549;DHT22;49838;51.798;10.954;2024-01-11T13:41:26;5.50;46.70
64549;DHT22;49838;51.798;10.954;2024-01-11T13:43:53;5.40;46.80
64549;DHT22;49838;51.798;10.954;2024-01-11T13:46:21;5.50;46.90
64549;DHT22;49838;51.798;10.954;2024-01-11T13:48:49;5.60;47.00
64549;DHT22;49838;51.798;10.954;2024-01-11T13:51:16;5.50;47.00
64549;DHT22;49838;51.798;10.954;2024-01-11T13:53:45;5.60;47.00
64549;DHT22;49838;51.798;10.954;2024-01-11T13:56:12;5.60;47.10
64549;DHT22;49838;51.798;10.954;2024-01-11T13:58:39;5.50;47.10
64549;DHT22;49838;51.798;10.954;2024-01-11T14:01:07;5.50;47.30
64549;DHT22;49838;51.798;10.954;2024-01-11T14:03:34;5.50;47.30
64549;DHT22;49838;51.798;10.954;2024-01-11T14:06:02;5.40;47.30
64549;DHT22;49838;51.798;10.954;2024-01-11T14:08:29;5.40;47.40
64549;DHT22;49838;51.798;10.954;2024-01-11T14:10:58;5.40;47.50
64549;DHT22;49838;51.798;10.954;2024-01-11T14:13:25;5.40;47.40
64549;DHT22;49838;51.798;10.954;2024-01-11T14:15:53;5.40;47.50
64549;DHT22;49838;51.798;10.954;2024-01-11T14:18:20;5.40;47.70
64549;DHT22;49838;51.798;10.954;2024-01-11T14:20:49;5.40;47.70
64549;DHT22;49838;51.798;10.954;2024-01-11T14:23:16;5.50;47.70
64549;DHT22;49838;51.798;10.954;2024-01-11T14:25:43;5.40;47.70
64549;DHT22;49838;51.798;10.954;2024-01-11T14:28:12;5.50;47.80
64549;DHT22;49838;51.798;10.954;2024-01-11T14:30:39;5.50;47.80
64549;DHT22;49838;51.798;10.954;2024-01-11T14:33:07;5.60;47.90
64549;DHT22;49838;51.798;10.954;2024-01-11T14:35:34;5.60;47.90
64549;DHT22;49838;51.798;10.954;2024-01-11T14:38:02;5.60;48.00
64549;DHT22;49838;51.798;10.954;2024-01-11T14:40:30;5.60;47.90
64549;DHT22;49838;51.798;10.954;2024-01-11T14:42:57;5.60;47.90
64549;DHT22;49838;51.798;10.954;2024-01-11T14:45:26;5.70;48.10
64549;DHT22;49838;51.798;10.954;2024-01-11T14:47:53;5.70;48.00
64549;DHT22;49838;51.798;10.954;2024-01-11T14:50:21;5.80;48.00
64549;DHT22;49838;51.798;10.954;2024-01-11T14:52:48;5.80;48.00
64549;DHT22;49838;51.798;10.954;2024-01-11T14:55:17;5.90;48.00
64549;DHT22;49838;51.798;10.954;2024-01-11T14:57:44;5.90;48.00
64549;DHT22;49838;51.798;10.954;2024-01-11T15:00:12;5.90;48.10
64549;DHT22;49838;51.798;10.954;2024-01-11T15:02:42;5.90;48.10
64549;DHT22;49838;51.798;10.954;2024-01-11T15:05:11;6.00;48.20
64549;DHT22;49838;51.798;10.954;2024-01-11T15:07:41;5.90;48.20
64549;DHT22;49838;51.798;10.954;2024-01-11T15:10:09;6.00;48.30
64549;DHT22;49838;51.798;10.954;2024-01-11T15:12:36;6.00;48.50
64549;DHT22;49838;51.798;10.954;2024-01-11T15:15:04;5.90;48.60
64549;DHT22;49838;51.798;10.954;2024-01-11T15:17:33;5.80;48.60
64549;DHT22;49838;51.798;10.954;2024-01-11T15:20:02;5.80;48.80
64549;DHT22;49838;51.798;10.954;2024-01-11T15:22:30;5.90;49.00
64549;DHT22;49838;51.798;10.954;2024-01-11T15:24:57;5.90;49.00
64549;DHT22;49838;51.798;10.954;2024-01-11T15:27:25;5.90;49.10
64549;DHT22;49838;51.798;10.954;2024-01-11T15:29:52;5.90;49.10